sensor_id;sensor_type;location;lat;lon;timestamp;temperature;humidity
326;DHT22;150;52.352;14.058;2023-05-14T00:02:03;15.10;29.90
326;DHT22;150;52.352;14.058;2023-05-14T00:04:30;15.10;30.40
326;DHT22;150;52.352;14.058;2023-05-14T00:06:56;15.10;30.50
326;DHT22;150;52.352;14.058;2023-05-14T00:09:24;15.10;30.90
326;DHT22;150;52.352;14.058;2023-05-14T00:11:51;15.00;30.30
326;DHT22;150;52.352;14.058;2023-05-14T00:14:17;15.00;30.30
326;DHT22;150;52.352;14.058;2023-05-14T00:16:44;14.90;30.90
326;DHT22;150;52.352;14.058;2023-05-14T00:19:11;14.80;30.90
326;DHT22;150;52.352;14.058;2023-05-14T00:21:39;14.80;30.90
326;DHT22;150;52.352;14.058;2023-05-14T00:24:06;14.70;30.90
326;DHT22;150;52.352;14.058;2023-05-14T00:26:34;14.70;31.30
326;DHT22;150;52.352;14.058;2023-05-14T00:29:00;14.60;31.80
326;DHT22;150;52.352;14.058;2023-05-14T00:31:27;14.60;31.10
326;DHT22;150;52.352;14.058;2023-05-14T00:33:55;14.50;31.50
326;DHT22;150;52.352;14.058;2023-05-14T00:36:22;14.50;31.50
326;DHT22;150;52.352;14.058;2023-05-14T00:38:48;14.40;31.80
326;DHT22;150;52.352;14.058;2023-05-14T00:41:15;14.40;32.70
326;DHT22;150;52.352;14.058;2023-05-14T00:43:43;14.40;32.20
326;DHT22;150;52.352;14.058;2023-05-14T00:46:10;14.30;32.20
326;DHT22;150;52.352;14.058;2023-05-14T00:48:37;14.30;32.90
326;DHT22;150;52.352;14.058;2023-05-14T00:51:04;14.30;33.70
326;DHT22;150;52.352;14.058;2023-05-14T00:53:31;14.30;33.50
326;DHT22;150;52.352;14.058;2023-05-14T00:55:58;14.20;33.50
326;DHT22;150;52.352;14.058;2023-05-14T00:58:25;14.20;33.60
326;DHT22;150;52.352;14.058;2023-05-14T01:00:53;14.20;33.60
326;DHT22;150;52.352;14.058;2023-05-14T01:03:20;14.10;33.80
326;DHT22;150;52.352;14.058;2023-05-14T01:05:55;14.20;33.90
326;DHT22;150;52.352;14.058;2023-05-14T01:08:33;14.20;33.80
326;DHT22;150;52.352;14.058;2023-05-14T01:11:05;14.20;34.20
326;DHT22;150;52.352;14.058;2023-05-14T01:13:42;14.20;34.20
326;DHT22;150;52.352;14.058;2023-05-14T01:16:12;14.20;34.90
326;DHT22;150;52.352;14.058;2023-05-14T01:18:42;14.20;34.80
326;DHT22;150;52.352;14.058;2023-05-14T01:21:26;14.20;34.40
326;DHT22;150;52.352;14.058;2023-05-14T01:23:58;14.20;34.50
326;DHT22;150;52.352;14.058;2023-05-14T01:26:25;14.20;34.50
326;DHT22;150;52.352;14.058;2023-05-14T01:28:52;14.20;34.30
326;DHT22;150;52.352;14.058;2023-05-14T01:31:21;14.30;34.40
326;DHT22;150;52.352;14.058;2023-05-14T01:33:53;14.30;34.20
326;DHT22;150;52.352;14.058;2023-05-14T01:36:21;14.40;34.60
326;DHT22;150;52.352;14.058;2023-05-14T01:38:50;14.40;34.90
326;DHT22;150;52.352;14.058;2023-05-14T01:41:18;14.40;34.40
326;DHT22;150;52.352;14.058;2023-05-14T01:43:46;14.40;34.30
326;DHT22;150;52.352;14.058;2023-05-14T01:46:12;14.40;35.10
326;DHT22;150;52.352;14.058;2023-05-14T01:48:39;14.50;34.10
326;DHT22;150;52.352;14.058;2023-05-14T01:51:05;14.50;34.10
326;DHT22;150;52.352;14.058;2023-05-14T01:53:32;14.50;34.20
326;DHT22;150;52.352;14.058;2023-05-14T01:56:00;14.50;34.20
326;DHT22;150;52.352;14.058;2023-05-14T01:58:27;14.50;34.10
326;DHT22;150;52.352;14.058;2023-05-14T02:00:54;14.50;34.10
326;DHT22;150;52.352;14.058;2023-05-14T02:03:20;14.50;34.30
326;DHT22;150;52.352;14.058;2023-05-14T02:05:47;14.50;34.00
326;DHT22;150;52.352;14.058;2023-05-14T02:08:14;14.50;34.60
326;DHT22;150;52.352;14.058;2023-05-14T02:10:40;14.50;34.60
326;DHT22;150;52.352;14.058;2023-05-14T02:13:08;14.50;34.60
326;DHT22;150;52.352;14.058;2023-05-14T02:15:35;14.50;34.20
326;DHT22;150;52.352;14.058;2023-05-14T02:18:01;14.50;34.10
326;DHT22;150;52.352;14.058;2023-05-14T02:20:28;14.50;34.40
326;DHT22;150;52.352;14.058;2023-05-14T02:22:54;14.50;34.60
326;DHT22;150;52.352;14.058;2023-05-14T02:25:21;14.60;34.60
326;DHT22;150;52.352;14.058;2023-05-14T02:27:48;14.60;34.20
326;DHT22;150;52.352;14.058;2023-05-14T02:30:16;14.60;34.10
326;DHT22;150;52.352;14.058;2023-05-14T02:32:43;14.60;34.20
326;DHT22;150;52.352;14.058;2023-05-14T02:35:10;14.60;34.40
326;DHT22;150;52.352;14.058;2023-05-14T02:37:36;14.60;33.80
326;DHT22;150;52.352;14.058;2023-05-14T02:40:04;14.50;33.80
326;DHT22;150;52.352;14.058;2023-05-14T02:42:30;14.50;34.00
326;DHT22;150;52.352;14.058;2023-05-14T02:44:57;14.50;34.50
326;DHT22;150;52.352;14.058;2023-05-14T02:47:25;14.50;34.10
326;DHT22;150;52.352;14.058;2023-05-14T02:49:51;14.40;34.70
326;DHT22;150;52.352;14.058;2023-05-14T02:52:18;14.40;34.40
326;DHT22;150;52.352;14.058;2023-05-14T02:54:45;14.40;34.40
326;DHT22;150;52.352;14.058;2023-05-14T02:57:11;14.40;34.60
326;DHT22;150;52.352;14.058;2023-05-14T02:59:38;14.30;34.50
326;DHT22;150;52.352;14.058;2023-05-14T03:02:04;14.30;34.00
326;DHT22;150;52.352;14.058;2023-05-14T03:04:32;14.20;33.60
326;DHT22;150;52.352;14.058;2023-05-14T03:06:59;14.20;34.20
326;DHT22;150;52.352;14.058;2023-05-14T03:09:25;14.20;34.20
326;DHT22;150;52.352;14.058;2023-05-14T03:11:52;14.20;34.40
326;DHT22;150;52.352;14.058;2023-05-14T03:14:19;14.10;34.80
326;DHT22;150;52.352;14.058;2023-05-14T03:16:45;14.10;34.40
326;DHT22;150;52.352;14.058;2023-05-14T03:19:12;14.10;33.90
326;DHT22;150;52.352;14.058;2023-05-14T03:21:40;14.10;33.90
326;DHT22;150;52.352;14.058;2023-05-14T03:24:07;14.00;34.10
326;DHT22;150;52.352;14.058;2023-05-14T03:26:33;14.00;34.20
326;DHT22;150;52.352;14.058;2023-05-14T03:29:01;13.90;34.40
326;DHT22;150;52.352;14.058;2023-05-14T03:31:28;13.90;34.50
326;DHT22;150;52.352;14.058;2023-05-14T03:33:57;13.90;34.10
326;DHT22;150;52.352;14.058;2023-05-14T03:36:24;13.80;34.90
326;DHT22;150;52.352;14.058;2023-05-14T03:38:52;13.80;34.90
326;DHT22;150;52.352;14.058;2023-05-14T03:41:19;13.80;35.70
326;DHT22;150;52.352;14.058;2023-05-14T03:43:47;13.80;35.20
326;DHT22;150;52.352;14.058;2023-05-14T03:46:13;13.80;34.70
326;DHT22;150;52.352;14.058;2023-05-14T03:48:40;13.80;34.50
326;DHT22;150;52.352;14.058;2023-05-14T03:51:07;13.90;35.10
326;DHT22;150;52.352;14.058;2023-05-14T03:53:34;14.00;35.10
326;DHT22;150;52.352;14.058;2023-05-14T03:56:02;14.10;35.20
326;DHT22;150;52.352;14.058;2023-05-14T03:58:28;14.30;34.40
326;DHT22;150;52.352;14.058;2023-05-14T04:00:55;14.60;33.70
326;DHT22;150;52.352;14.058;2023-05-14T04:03:24;14.80;32.00
326;DHT22;150;52.352;14.058;2023-05-14T04:06:01;14.80;32.20
326;DHT22;150;52.352;14.058;2023-05-14T04:08:30;14.70;32.40
326;DHT22;150;52.352;14.058;2023-05-14T04:10:57;15.00;33.00
326;DHT22;150;52.352;14.058;2023-05-14T04:13:25;14.60;32.10
326;DHT22;150;52.352;14.058;2023-05-14T04:15:51;14.50;31.80
326;DHT22;150;52.352;14.058;2023-05-14T04:18:21;14.50;32.30
326;DHT22;150;52.352;14.058;2023-05-14T04:20:51;14.40;32.60
326;DHT22;150;52.352;14.058;2023-05-14T04:23:22;14.30;32.10
326;DHT22;150;52.352;14.058;2023-05-14T04:25:54;14.30;32.60
326;DHT22;150;52.352;14.058;2023-05-14T04:28:23;14.20;33.10
326;DHT22;150;52.352;14.058;2023-05-14T04:30:53;14.20;33.10
326;DHT22;150;52.352;14.058;2023-05-14T04:33:20;14.20;33.70
326;DHT22;150;52.352;14.058;2023-05-14T04:35:47;14.20;34.40
326;DHT22;150;52.352;14.058;2023-05-14T04:38:14;14.20;35.30
326;DHT22;150;52.352;14.058;2023-05-14T04:40:43;14.20;35.10
326;DHT22;150;52.352;14.058;2023-05-14T04:43:16;14.30;34.20
326;DHT22;150;52.352;14.058;2023-05-14T04:45:42;14.40;35.20
326;DHT22;150;52.352;14.058;2023-05-14T04:48:12;14.50;34.60
326;DHT22;150;52.352;14.058;2023-05-14T04:50:39;14.60;34.10
326;DHT22;150;52.352;14.058;2023-05-14T04:53:06;14.60;33.90
326;DHT22;150;52.352;14.058;2023-05-14T04:55:33;14.80;33.90
326;DHT22;150;52.352;14.058;2023-05-14T04:57:59;14.70;33.80
326;DHT22;150;52.352;14.058;2023-05-14T05:00:28;14.90;34.50
326;DHT22;150;52.352;14.058;2023-05-14T05:02:55;14.90;34.10
326;DHT22;150;52.352;14.058;2023-05-14T05:05:23;15.10;33.30
326;DHT22;150;52.352;14.058;2023-05-14T05:07:53;15.20;33.30
326;DHT22;150;52.352;14.058;2023-05-14T05:10:20;15.30;33.20
326;DHT22;150;52.352;14.058;2023-05-14T05:12:46;15.50;32.00
326;DHT22;150;52.352;14.058;2023-05-14T05:15:13;15.50;30.80
326;DHT22;150;52.352;14.058;2023-05-14T05:17:42;15.70;30.20
326;DHT22;150;52.352;14.058;2023-05-14T05:20:10;15.80;30.20
326;DHT22;150;52.352;14.058;2023-05-14T05:22:45;15.90;29.40
326;DHT22;150;52.352;14.058;2023-05-14T05:25:14;15.90;28.40
326;DHT22;150;52.352;14.058;2023-05-14T05:27:41;16.00;26.80
326;DHT22;150;52.352;14.058;2023-05-14T05:30:09;16.00;26.10
326;DHT22;150;52.352;14.058;2023-05-14T05:32:35;15.80;25.20
326;DHT22;150;52.352;14.058;2023-05-14T05:35:02;15.80;26.20
326;DHT22;150;52.352;14.058;2023-05-14T05:37:30;15.80;26.20
326;DHT22;150;52.352;14.058;2023-05-14T05:39:58;15.80;26.70
326;DHT22;150;52.352;14.058;2023-05-14T05:42:27;15.80;26.80
326;DHT22;150;52.352;14.058;2023-05-14T05:44:54;15.80;26.20
326;DHT22;150;52.352;14.058;2023-05-14T05:47:21;15.80;26.00
326;DHT22;150;52.352;14.058;2023-05-14T05:49:48;15.80;25.50
326;DHT22;150;52.352;14.058;2023-05-14T05:52:15;15.80;25.10
326;DHT22;150;52.352;14.058;2023-05-14T05:54:41;15.90;24.90
326;DHT22;150;52.352;14.058;2023-05-14T05:57:09;15.80;24.50
326;DHT22;150;52.352;14.058;2023-05-14T05:59:36;15.90;24.90
326;DHT22;150;52.352;14.058;2023-05-14T06:02:06;16.00;25.00
326;DHT22;150;52.352;14.058;2023-05-14T06:04:33;16.00;24.40
326;DHT22;150;52.352;14.058;2023-05-14T06:07:00;16.20;24.60
326;DHT22;150;52.352;14.058;2023-05-14T06:09:30;16.30;23.90
326;DHT22;150;52.352;14.058;2023-05-14T06:12:03;16.50;23.80
326;DHT22;150;52.352;14.058;2023-05-14T06:14:42;16.50;22.70
326;DHT22;150;52.352;14.058;2023-05-14T06:17:12;16.70;23.20
326;DHT22;150;52.352;14.058;2023-05-14T06:19:44;16.90;22.70
326;DHT22;150;52.352;14.058;2023-05-14T06:22:13;17.10;22.30
326;DHT22;150;52.352;14.058;2023-05-14T06:24:44;17.10;22.00
326;DHT22;150;52.352;14.058;2023-05-14T06:27:21;17.20;22.00
326;DHT22;150;52.352;14.058;2023-05-14T06:29:56;17.20;21.40
326;DHT22;150;52.352;14.058;2023-05-14T06:32:27;17.20;21.30
326;DHT22;150;52.352;14.058;2023-05-14T06:35:13;17.20;21.60
326;DHT22;150;52.352;14.058;2023-05-14T06:37:43;17.40;21.50
326;DHT22;150;52.352;14.058;2023-05-14T06:40:10;17.60;22.20
326;DHT22;150;52.352;14.058;2023-05-14T06:42:40;17.70;20.70
326;DHT22;150;52.352;14.058;2023-05-14T06:45:09;17.80;20.70
326;DHT22;150;52.352;14.058;2023-05-14T06:47:36;18.00;20.90
326;DHT22;150;52.352;14.058;2023-05-14T06:50:03;18.10;20.30
326;DHT22;150;52.352;14.058;2023-05-14T06:52:30;18.20;20.40
326;DHT22;150;52.352;14.058;2023-05-14T06:54:56;18.20;20.20
326;DHT22;150;52.352;14.058;2023-05-14T06:57:23;18.30;20.40
326;DHT22;150;52.352;14.058;2023-05-14T06:59:49;18.40;19.60
326;DHT22;150;52.352;14.058;2023-05-14T07:02:17;18.60;20.60
326;DHT22;150;52.352;14.058;2023-05-14T07:04:44;18.80;19.40
326;DHT22;150;52.352;14.058;2023-05-14T07:07:11;18.80;19.10
326;DHT22;150;52.352;14.058;2023-05-14T07:09:39;18.80;19.10
326;DHT22;150;52.352;14.058;2023-05-14T07:12:07;19.00;19.50
326;DHT22;150;52.352;14.058;2023-05-14T07:14:33;19.10;18.60
326;DHT22;150;52.352;14.058;2023-05-14T07:17:00;19.10;18.80
326;DHT22;150;52.352;14.058;2023-05-14T07:19:28;19.10;17.90
326;DHT22;150;52.352;14.058;2023-05-14T07:22:01;19.20;18.80
326;DHT22;150;52.352;14.058;2023-05-14T07:24:28;19.20;17.70
326;DHT22;150;52.352;14.058;2023-05-14T07:27:01;19.50;18.30
326;DHT22;150;52.352;14.058;2023-05-14T07:29:34;19.70;18.40
326;DHT22;150;52.352;14.058;2023-05-14T07:32:01;19.90;17.70
326;DHT22;150;52.352;14.058;2023-05-14T07:34:29;19.90;17.80
326;DHT22;150;52.352;14.058;2023-05-14T07:36:56;20.10;17.40
326;DHT22;150;52.352;14.058;2023-05-14T07:39:22;20.40;16.10
326;DHT22;150;52.352;14.058;2023-05-14T07:41:50;20.60;16.20
326;DHT22;150;52.352;14.058;2023-05-14T07:44:19;20.70;15.40
326;DHT22;150;52.352;14.058;2023-05-14T07:46:45;20.80;14.00
326;DHT22;150;52.352;14.058;2023-05-14T07:49:12;20.90;16.10
326;DHT22;150;52.352;14.058;2023-05-14T07:51:40;21.10;14.90
326;DHT22;150;52.352;14.058;2023-05-14T07:54:07;21.40;15.60
326;DHT22;150;52.352;14.058;2023-05-14T07:56:33;21.70;14.80
326;DHT22;150;52.352;14.058;2023-05-14T07:59:00;21.70;11.90
326;DHT22;150;52.352;14.058;2023-05-14T08:01:26;21.70;11.00
326;DHT22;150;52.352;14.058;2023-05-14T08:03:53;21.70;11.50
326;DHT22;150;52.352;14.058;2023-05-14T08:06:20;21.70;11.40
326;DHT22;150;52.352;14.058;2023-05-14T08:08:49;21.60;11.40
326;DHT22;150;52.352;14.058;2023-05-14T08:11:16;21.50;10.60
326;DHT22;150;52.352;14.058;2023-05-14T08:13:43;21.60;11.50
326;DHT22;150;52.352;14.058;2023-05-14T08:16:10;21.80;11.00
326;DHT22;150;52.352;14.058;2023-05-14T08:18:36;22.00;9.80
326;DHT22;150;52.352;14.058;2023-05-14T08:21:03;22.00;8.80
326;DHT22;150;52.352;14.058;2023-05-14T08:23:30;22.00;9.10
326;DHT22;150;52.352;14.058;2023-05-14T08:25:58;22.30;9.60
326;DHT22;150;52.352;14.058;2023-05-14T08:28:25;22.20;8.10
326;DHT22;150;52.352;14.058;2023-05-14T08:30:53;22.20;8.80
326;DHT22;150;52.352;14.058;2023-05-14T08:33:20;22.10;8.00
326;DHT22;150;52.352;14.058;2023-05-14T08:35:51;22.30;7.80
326;DHT22;150;52.352;14.058;2023-05-14T08:38:18;22.20;8.30
326;DHT22;150;52.352;14.058;2023-05-14T08:40:47;22.20;9.90
326;DHT22;150;52.352;14.058;2023-05-14T08:43:19;22.50;9.10
326;DHT22;150;52.352;14.058;2023-05-14T08:45:48;22.60;8.00
326;DHT22;150;52.352;14.058;2023-05-14T08:48:17;22.70;8.20
326;DHT22;150;52.352;14.058;2023-05-14T08:50:47;22.80;6.20
326;DHT22;150;52.352;14.058;2023-05-14T08:53:19;22.70;6.60
326;DHT22;150;52.352;14.058;2023-05-14T08:55:50;22.90;6.80
326;DHT22;150;52.352;14.058;2023-05-14T08:58:21;22.90;5.80
326;DHT22;150;52.352;14.058;2023-05-14T09:00:48;22.90;5.50
326;DHT22;150;52.352;14.058;2023-05-14T09:03:15;22.90;6.90
326;DHT22;150;52.352;14.058;2023-05-14T09:05:42;22.90;7.00
326;DHT22;150;52.352;14.058;2023-05-14T09:08:09;23.00;7.40
326;DHT22;150;52.352;14.058;2023-05-14T09:10:36;22.80;5.70
326;DHT22;150;52.352;14.058;2023-05-14T09:13:04;22.80;6.30
326;DHT22;150;52.352;14.058;2023-05-14T09:15:33;23.00;5.80
326;DHT22;150;52.352;14.058;2023-05-14T09:18:00;23.10;6.30
326;DHT22;150;52.352;14.058;2023-05-14T09:20:27;23.00;5.10
326;DHT22;150;52.352;14.058;2023-05-14T09:22:54;22.80;5.00
326;DHT22;150;52.352;14.058;2023-05-14T09:25:25;22.50;4.90
326;DHT22;150;52.352;14.058;2023-05-14T09:27:57;22.30;5.80
326;DHT22;150;52.352;14.058;2023-05-14T09:30:25;22.20;5.40
326;DHT22;150;52.352;14.058;2023-05-14T09:33:13;22.20;5.10
326;DHT22;150;52.352;14.058;2023-05-14T09:36:01;22.20;5.40
326;DHT22;150;52.352;14.058;2023-05-14T09:38:32;22.30;6.30
326;DHT22;150;52.352;14.058;2023-05-14T09:41:02;22.50;6.20
326;DHT22;150;52.352;14.058;2023-05-14T09:43:31;22.50;6.90
326;DHT22;150;52.352;14.058;2023-05-14T09:45:58;22.40;6.30
326;DHT22;150;52.352;14.058;2023-05-14T09:48:26;22.50;6.30
326;DHT22;150;52.352;14.058;2023-05-14T09:50:53;22.60;6.30
326;DHT22;150;52.352;14.058;2023-05-14T09:53:20;22.90;7.20
326;DHT22;150;52.352;14.058;2023-05-14T09:55:49;23.30;6.70
326;DHT22;150;52.352;14.058;2023-05-14T09:58:16;23.20;5.30
326;DHT22;150;52.352;14.058;2023-05-14T10:00:45;23.20;5.30
326;DHT22;150;52.352;14.058;2023-05-14T10:03:15;23.20;5.30
326;DHT22;150;52.352;14.058;2023-05-14T10:05:48;23.10;5.20
326;DHT22;150;52.352;14.058;2023-05-14T10:08:21;22.90;5.10
326;DHT22;150;52.352;14.058;2023-05-14T10:10:55;22.70;5.60
326;DHT22;150;52.352;14.058;2023-05-14T10:13:28;22.30;5.90
326;DHT22;150;52.352;14.058;2023-05-14T10:16:00;22.40;7.10
326;DHT22;150;52.352;14.058;2023-05-14T10:18:37;22.40;7.70
326;DHT22;150;52.352;14.058;2023-05-14T10:21:07;22.40;7.40
326;DHT22;150;52.352;14.058;2023-05-14T10:23:34;22.70;7.90
326;DHT22;150;52.352;14.058;2023-05-14T10:26:03;22.80;5.00
326;DHT22;150;52.352;14.058;2023-05-14T10:28:30;22.70;4.90
326;DHT22;150;52.352;14.058;2023-05-14T10:30:58;22.70;5.00
326;DHT22;150;52.352;14.058;2023-05-14T10:33:25;22.70;5.40
326;DHT22;150;52.352;14.058;2023-05-14T10:36:00;22.60;5.80
326;DHT22;150;52.352;14.058;2023-05-14T10:38:30;22.40;5.40
326;DHT22;150;52.352;14.058;2023-05-14T10:40:59;22.40;5.40
326;DHT22;150;52.352;14.058;2023-05-14T10:43:37;22.40;4.70
326;DHT22;150;52.352;14.058;2023-05-14T10:46:05;22.20;5.60
326;DHT22;150;52.352;14.058;2023-05-14T10:48:36;22.10;4.80
326;DHT22;150;52.352;14.058;2023-05-14T10:51:02;22.10;5.30
326;DHT22;150;52.352;14.058;2023-05-14T10:53:40;22.10;5.20
326;DHT22;150;52.352;14.058;2023-05-14T10:56:08;22.10;5.70
326;DHT22;150;52.352;14.058;2023-05-14T10:58:38;22.30;5.70
326;DHT22;150;52.352;14.058;2023-05-14T11:01:06;22.20;5.30
326;DHT22;150;52.352;14.058;2023-05-14T11:03:40;22.20;6.00
326;DHT22;150;52.352;14.058;2023-05-14T11:06:13;22.40;4.70
326;DHT22;150;52.352;14.058;2023-05-14T11:08:43;22.60;4.10
326;DHT22;150;52.352;14.058;2023-05-14T11:11:11;22.80;5.00
326;DHT22;150;52.352;14.058;2023-05-14T11:13:41;23.00;5.10
326;DHT22;150;52.352;14.058;2023-05-14T11:16:09;23.20;3.60
326;DHT22;150;52.352;14.058;2023-05-14T11:18:38;23.10;4.00
326;DHT22;150;52.352;14.058;2023-05-14T11:21:11;23.00;4.30
326;DHT22;150;52.352;14.058;2023-05-14T11:23:49;23.20;4.50
326;DHT22;150;52.352;14.058;2023-05-14T11:26:32;23.20;4.10
326;DHT22;150;52.352;14.058;2023-05-14T11:28:59;23.40;4.70
326;DHT22;150;52.352;14.058;2023-05-14T11:31:34;23.40;3.60
326;DHT22;150;52.352;14.058;2023-05-14T11:34:10;23.30;3.80
326;DHT22;150;52.352;14.058;2023-05-14T11:36:37;23.10;4.20
326;DHT22;150;52.352;14.058;2023-05-14T11:39:05;23.20;5.30
326;DHT22;150;52.352;14.058;2023-05-14T11:41:35;23.30;4.80
326;DHT22;150;52.352;14.058;2023-05-14T11:44:04;23.20;4.50
326;DHT22;150;52.352;14.058;2023-05-14T11:46:35;23.10;4.60
326;DHT22;150;52.352;14.058;2023-05-14T11:49:07;23.00;5.10
326;DHT22;150;52.352;14.058;2023-05-14T11:52:01;23.00;3.90
326;DHT22;150;52.352;14.058;2023-05-14T11:54:30;22.80;4.50
326;DHT22;150;52.352;14.058;2023-05-14T11:56:59;22.80;5.00
326;DHT22;150;52.352;14.058;2023-05-14T11:59:26;22.90;5.10
326;DHT22;150;52.352;14.058;2023-05-14T12:01:53;22.80;4.90
326;DHT22;150;52.352;14.058;2023-05-14T12:04:22;23.00;5.10
326;DHT22;150;52.352;14.058;2023-05-14T12:06:52;22.90;4.80
326;DHT22;150;52.352;14.058;2023-05-14T12:09:22;23.00;4.80
326;DHT22;150;52.352;14.058;2023-05-14T12:11:51;23.10;4.00
326;DHT22;150;52.352;14.058;2023-05-14T12:14:21;23.10;4.60
326;DHT22;150;52.352;14.058;2023-05-14T12:16:49;23.10;4.40
326;DHT22;150;52.352;14.058;2023-05-14T12:19:17;23.00;4.20
326;DHT22;150;52.352;14.058;2023-05-14T12:21:46;22.80;4.50
326;DHT22;150;52.352;14.058;2023-05-14T12:24:19;22.70;4.20
326;DHT22;150;52.352;14.058;2023-05-14T12:26:53;22.80;4.50
326;DHT22;150;52.352;14.058;2023-05-14T12:29:24;22.90;4.50
326;DHT22;150;52.352;14.058;2023-05-14T12:32:10;22.70;3.40
326;DHT22;150;52.352;14.058;2023-05-14T12:38:24;22.80;2.50
326;DHT22;150;52.352;14.058;2023-05-14T12:45:29;22.80;2.80
326;DHT22;150;52.352;14.058;2023-05-14T12:48:35;23.00;3.50
326;DHT22;150;52.352;14.058;2023-05-14T12:51:47;23.00;3.00
326;DHT22;150;52.352;14.058;2023-05-14T12:54:48;22.80;3.10
326;DHT22;150;52.352;14.058;2023-05-14T12:57:44;22.90;3.10
326;DHT22;150;52.352;14.058;2023-05-14T13:00:38;23.00;2.90
326;DHT22;150;52.352;14.058;2023-05-14T13:07:10;22.80;2.30
326;DHT22;150;52.352;14.058;2023-05-14T13:09:40;22.90;2.80
326;DHT22;150;52.352;14.058;2023-05-14T13:12:07;22.90;3.30
326;DHT22;150;52.352;14.058;2023-05-14T13:14:46;23.20;2.80
326;DHT22;150;52.352;14.058;2023-05-14T13:19:01;23.10;2.80
326;DHT22;150;52.352;14.058;2023-05-14T13:21:13;23.30;3.70
326;DHT22;150;52.352;14.058;2023-05-14T13:23:50;23.30;2.50
326;DHT22;150;52.352;14.058;2023-05-14T13:26:38;23.40;2.80
326;DHT22;150;52.352;14.058;2023-05-14T13:29:38;23.60;2.30
326;DHT22;150;52.352;14.058;2023-05-14T13:32:06;23.70;1.70
326;DHT22;150;52.352;14.058;2023-05-14T13:34:34;23.80;2.10
326;DHT22;150;52.352;14.058;2023-05-14T13:37:01;23.70;1.00
326;DHT22;150;52.352;14.058;2023-05-14T13:39:28;23.60;1.90
326;DHT22;150;52.352;14.058;2023-05-14T13:41:55;23.70;1.50
326;DHT22;150;52.352;14.058;2023-05-14T13:44:22;23.70;1.80
326;DHT22;150;52.352;14.058;2023-05-14T13:46:48;23.70;2.40
326;DHT22;150;52.352;14.058;2023-05-14T13:49:15;23.50;2.60
326;DHT22;150;52.352;14.058;2023-05-14T13:51:43;23.70;2.00
326;DHT22;150;52.352;14.058;2023-05-14T13:54:10;23.50;2.50
326;DHT22;150;52.352;14.058;2023-05-14T13:56:36;23.40;1.70
326;DHT22;150;52.352;14.058;2023-05-14T13:59:03;23.30;2.70
326;DHT22;150;52.352;14.058;2023-05-14T14:01:30;23.40;2.10
326;DHT22;150;52.352;14.058;2023-05-14T14:03:57;23.60;2.50
326;DHT22;150;52.352;14.058;2023-05-14T14:06:24;23.70;2.60
326;DHT22;150;52.352;14.058;2023-05-14T14:08:53;23.60;2.10
326;DHT22;150;52.352;14.058;2023-05-14T14:11:19;23.50;2.70
326;DHT22;150;52.352;14.058;2023-05-14T14:13:46;23.40;2.80
326;DHT22;150;52.352;14.058;2023-05-14T14:16:13;23.50;3.10
326;DHT22;150;52.352;14.058;2023-05-14T14:18:40;23.20;2.90
326;DHT22;150;52.352;14.058;2023-05-14T14:21:13;23.10;3.30
326;DHT22;150;52.352;14.058;2023-05-14T14:24:07;23.20;3.40
326;DHT22;150;52.352;14.058;2023-05-14T14:26:34;23.10;3.30
326;DHT22;150;52.352;14.058;2023-05-14T14:29:00;23.00;3.50
326;DHT22;150;52.352;14.058;2023-05-14T14:31:27;22.80;3.60
326;DHT22;150;52.352;14.058;2023-05-14T14:33:54;22.70;4.10
326;DHT22;150;52.352;14.058;2023-05-14T14:36:21;22.60;4.30
326;DHT22;150;52.352;14.058;2023-05-14T14:38:48;22.60;4.90
326;DHT22;150;52.352;14.058;2023-05-14T14:41:16;22.50;4.50
326;DHT22;150;52.352;14.058;2023-05-14T14:43:42;22.30;3.60
326;DHT22;150;52.352;14.058;2023-05-14T14:46:09;22.20;4.00
326;DHT22;150;52.352;14.058;2023-05-14T14:48:36;22.30;4.70
326;DHT22;150;52.352;14.058;2023-05-14T14:51:03;22.30;4.40
326;DHT22;150;52.352;14.058;2023-05-14T14:53:31;22.20;4.60
326;DHT22;150;52.352;14.058;2023-05-14T14:55:58;22.10;4.60
326;DHT22;150;52.352;14.058;2023-05-14T14:58:30;22.20;4.60
326;DHT22;150;52.352;14.058;2023-05-14T15:00:57;22.20;4.60
326;DHT22;150;52.352;14.058;2023-05-14T15:03:24;22.40;4.20
326;DHT22;150;52.352;14.058;2023-05-14T15:05:54;22.60;4.10
326;DHT22;150;52.352;14.058;2023-05-14T15:08:24;22.70;4.10
326;DHT22;150;52.352;14.058;2023-05-14T15:10:54;22.70;4.40
326;DHT22;150;52.352;14.058;2023-05-14T15:13:21;22.80;5.00
326;DHT22;150;52.352;14.058;2023-05-14T15:15:50;22.80;4.90
326;DHT22;150;52.352;14.058;2023-05-14T15:18:19;22.60;4.90
326;DHT22;150;52.352;14.058;2023-05-14T15:20:46;22.50;4.80
326;DHT22;150;52.352;14.058;2023-05-14T15:23:12;22.30;4.70
326;DHT22;150;52.352;14.058;2023-05-14T15:25:39;22.20;5.00
326;DHT22;150;52.352;14.058;2023-05-14T15:28:06;22.10;5.10
326;DHT22;150;52.352;14.058;2023-05-14T15:30:33;21.90;6.10
326;DHT22;150;52.352;14.058;2023-05-14T15:33:03;21.90;5.40
326;DHT22;150;52.352;14.058;2023-05-14T15:35:32;21.90;5.70
326;DHT22;150;52.352;14.058;2023-05-14T15:37:59;21.80;5.40
326;DHT22;150;52.352;14.058;2023-05-14T15:40:26;21.80;5.00
326;DHT22;150;52.352;14.058;2023-05-14T15:42:52;21.90;5.70
326;DHT22;150;52.352;14.058;2023-05-14T15:45:19;21.90;6.00
326;DHT22;150;52.352;14.058;2023-05-14T15:47:46;22.00;5.20
326;DHT22;150;52.352;14.058;2023-05-14T15:50:14;22.00;4.90
326;DHT22;150;52.352;14.058;2023-05-14T15:52:41;21.90;5.30
326;DHT22;150;52.352;14.058;2023-05-14T15:55:08;21.90;4.50
326;DHT22;150;52.352;14.058;2023-05-14T15:57:35;21.90;4.40
326;DHT22;150;52.352;14.058;2023-05-14T16:00:02;21.90;5.30
326;DHT22;150;52.352;14.058;2023-05-14T16:02:34;21.80;5.80
326;DHT22;150;52.352;14.058;2023-05-14T16:05:01;21.60;7.00
326;DHT22;150;52.352;14.058;2023-05-14T16:07:29;21.50;6.90
326;DHT22;150;52.352;14.058;2023-05-14T16:09:56;21.30;6.40
326;DHT22;150;52.352;14.058;2023-05-14T16:12:22;21.10;6.70
326;DHT22;150;52.352;14.058;2023-05-14T16:14:49;21.00;6.80
326;DHT22;150;52.352;14.058;2023-05-14T16:17:26;21.10;7.40
326;DHT22;150;52.352;14.058;2023-05-14T17:22:24;21.50;7.30
326;DHT22;150;52.352;14.058;2023-05-14T17:33:16;21.10;8.10
326;DHT22;150;52.352;14.058;2023-05-14T17:36:39;21.20;8.50
326;DHT22;150;52.352;14.058;2023-05-14T17:39:33;21.10;8.10
326;DHT22;150;52.352;14.058;2023-05-14T18:19:00;21.30;8.60
326;DHT22;150;52.352;14.058;2023-05-14T18:21:51;21.20;8.60
326;DHT22;150;52.352;14.058;2023-05-14T18:24:55;21.10;8.60
326;DHT22;150;52.352;14.058;2023-05-14T18:27:31;21.10;9.10
326;DHT22;150;52.352;14.058;2023-05-14T18:30:48;21.00;9.50
326;DHT22;150;52.352;14.058;2023-05-14T18:37:23;20.90;10.40
326;DHT22;150;52.352;14.058;2023-05-14T18:40:04;20.80;11.90
326;DHT22;150;52.352;14.058;2023-05-14T18:43:23;20.70;11.50
326;DHT22;150;52.352;14.058;2023-05-14T18:46:40;20.60;12.00
326;DHT22;150;52.352;14.058;2023-05-14T18:49:17;20.50;12.90
326;DHT22;150;52.352;14.058;2023-05-14T18:55:14;20.20;13.00